PILOTS ONLINE: 418    ATC ONLINE: 58

CYIK

Ivujivik Airport

Location

IATA YIK
City Ivujivik
Country  Canada
Latitude 62° 25' 2" N
Longitude 77° 55' 31" W
Elevation 126 ft
Type Medium Airport

Map

Weather

METAR
2014/10/23 17:00
CYIK 231700Z 04021KT 15SM BKN015 M04/M06 A3015 RMK SC6 SLP214
TAF
2014/10/23 20:00
TAF 
      AMD CYIK 232000Z 2320/2321 FCST CNCLD DUE NO OBS 
      RMK NXT FCST WILL BE ISSUED AT 241345Z

Runways

08/26 3521 ft / 100 ft

Outbound flights

Callsign Flying to Pilot ATD/STD ETA Aircraft

Inbound flights

Callsign Flying from Pilot ATD ETA Aircraft